sensor_id;sensor_type;location;lat;lon;timestamp;temperature;humidity
44775;DHT22;31340;51.402;0.016;2024-03-02T00:00:58;6.20;99.90
44775;DHT22;31340;51.402;0.016;2024-03-02T00:03:27;6.20;99.90
44775;DHT22;31340;51.402;0.016;2024-03-02T00:05:54;6.20;99.90
44775;DHT22;31340;51.402;0.016;2024-03-02T00:08:24;6.20;99.90
44775;DHT22;31340;51.402;0.016;2024-03-02T00:10:57;6.20;99.90
44775;DHT22;31340;51.402;0.016;2024-03-02T00:13:26;6.20;99.90
44775;DHT22;31340;51.402;0.016;2024-03-02T00:15:57;6.20;99.90
44775;DHT22;31340;51.402;0.016;2024-03-02T00:18:33;6.10;99.90
44775;DHT22;31340;51.402;0.016;2024-03-02T00:21:03;6.20;99.90
44775;DHT22;31340;51.402;0.016;2024-03-02T00:23:32;6.10;99.90
44775;DHT22;31340;51.402;0.016;2024-03-02T00:26:01;6.20;99.90
44775;DHT22;31340;51.402;0.016;2024-03-02T00:28:33;6.20;99.90
44775;DHT22;31340;51.402;0.016;2024-03-02T00:31:09;6.20;99.90
44775;DHT22;31340;51.402;0.016;2024-03-02T00:33:44;6.10;99.90
44775;DHT22;31340;51.402;0.016;2024-03-02T00:36:18;6.10;99.90
44775;DHT22;31340;51.402;0.016;2024-03-02T00:38:51;6.10;99.90
44775;DHT22;31340;51.402;0.016;2024-03-02T00:41:27;6.10;99.90
44775;DHT22;31340;51.402;0.016;2024-03-02T00:44:07;6.10;99.90
44775;DHT22;31340;51.402;0.016;2024-03-02T00:46:40;6.10;99.90
44775;DHT22;31340;51.402;0.016;2024-03-02T00:49:18;6.10;99.90
44775;DHT22;31340;51.402;0.016;2024-03-02T00:51:49;6.10;99.90
44775;DHT22;31340;51.402;0.016;2024-03-02T00:54:26;6.10;99.90
44775;DHT22;31340;51.402;0.016;2024-03-02T00:56:54;6.00;99.90
44775;DHT22;31340;51.402;0.016;2024-03-02T00:59:23;6.00;99.90
44775;DHT22;31340;51.402;0.016;2024-03-02T01:01:51;6.00;99.90
44775;DHT22;31340;51.402;0.016;2024-03-02T01:04:19;6.00;99.90
44775;DHT22;31340;51.402;0.016;2024-03-02T01:06:47;6.00;99.90
44775;DHT22;31340;51.402;0.016;2024-03-02T01:09:16;6.00;99.90
44775;DHT22;31340;51.402;0.016;2024-03-02T01:11:45;6.00;99.90
44775;DHT22;31340;51.402;0.016;2024-03-02T01:14:13;6.00;99.90
44775;DHT22;31340;51.402;0.016;2024-03-02T01:16:41;6.00;99.90
44775;DHT22;31340;51.402;0.016;2024-03-02T01:19:08;6.00;99.90
44775;DHT22;31340;51.402;0.016;2024-03-02T01:21:38;6.00;99.90
44775;DHT22;31340;51.402;0.016;2024-03-02T01:24:05;6.10;99.90
44775;DHT22;31340;51.402;0.016;2024-03-02T01:26:33;6.10;99.90
44775;DHT22;31340;51.402;0.016;2024-03-02T01:29:01;6.10;99.90
44775;DHT22;31340;51.402;0.016;2024-03-02T01:31:28;6.10;99.90
44775;DHT22;31340;51.402;0.016;2024-03-02T01:33:56;6.10;99.90
44775;DHT22;31340;51.402;0.016;2024-03-02T01:36:24;6.10;99.90
44775;DHT22;31340;51.402;0.016;2024-03-02T01:38:51;6.20;99.90
44775;DHT22;31340;51.402;0.016;2024-03-02T01:41:19;6.20;99.90
44775;DHT22;31340;51.402;0.016;2024-03-02T01:43:47;6.10;99.90
44775;DHT22;31340;51.402;0.016;2024-03-02T01:46:14;6.20;99.90
44775;DHT22;31340;51.402;0.016;2024-03-02T01:48:42;6.20;99.90
44775;DHT22;31340;51.402;0.016;2024-03-02T01:51:10;6.20;99.90
44775;DHT22;31340;51.402;0.016;2024-03-02T01:53:39;6.20;99.90
44775;DHT22;31340;51.402;0.016;2024-03-02T01:56:06;6.20;99.90
44775;DHT22;31340;51.402;0.016;2024-03-02T01:58:35;6.30;99.90
44775;DHT22;31340;51.402;0.016;2024-03-02T02:01:03;6.30;99.90
44775;DHT22;31340;51.402;0.016;2024-03-02T02:03:31;6.30;99.90
44775;DHT22;31340;51.402;0.016;2024-03-02T02:05:59;6.30;99.90
44775;DHT22;31340;51.402;0.016;2024-03-02T02:08:27;6.30;99.90
44775;DHT22;31340;51.402;0.016;2024-03-02T02:10:55;6.40;99.90
44775;DHT22;31340;51.402;0.016;2024-03-02T02:13:23;6.40;99.90
44775;DHT22;31340;51.402;0.016;2024-03-02T02:15:50;6.40;99.90
44775;DHT22;31340;51.402;0.016;2024-03-02T02:18:20;6.50;99.90
44775;DHT22;31340;51.402;0.016;2024-03-02T02:20:49;6.50;99.90
44775;DHT22;31340;51.402;0.016;2024-03-02T02:23:17;6.50;99.90
44775;DHT22;31340;51.402;0.016;2024-03-02T02:25:46;6.50;99.90
44775;DHT22;31340;51.402;0.016;2024-03-02T02:28:13;6.50;99.90
44775;DHT22;31340;51.402;0.016;2024-03-02T02:30:41;6.50;99.90
44775;DHT22;31340;51.402;0.016;2024-03-02T02:33:10;6.60;99.90
44775;DHT22;31340;51.402;0.016;2024-03-02T02:35:38;6.60;99.90
44775;DHT22;31340;51.402;0.016;2024-03-02T02:38:06;6.60;99.90
44775;DHT22;31340;51.402;0.016;2024-03-02T02:40:33;6.70;99.90
44775;DHT22;31340;51.402;0.016;2024-03-02T02:43:02;6.70;99.90
44775;DHT22;31340;51.402;0.016;2024-03-02T02:45:30;6.70;99.90
44775;DHT22;31340;51.402;0.016;2024-03-02T02:47:57;6.70;99.90
44775;DHT22;31340;51.402;0.016;2024-03-02T02:50:25;6.70;99.90
44775;DHT22;31340;51.402;0.016;2024-03-02T02:52:53;6.80;99.90
44775;DHT22;31340;51.402;0.016;2024-03-02T02:55:20;6.80;99.90
44775;DHT22;31340;51.402;0.016;2024-03-02T02:57:48;6.80;99.90
44775;DHT22;31340;51.402;0.016;2024-03-02T03:00:16;6.80;99.90
44775;DHT22;31340;51.402;0.016;2024-03-02T03:02:47;6.80;99.90
44775;DHT22;31340;51.402;0.016;2024-03-02T03:05:18;6.80;99.90
44775;DHT22;31340;51.402;0.016;2024-03-02T03:07:46;6.80;99.90
44775;DHT22;31340;51.402;0.016;2024-03-02T03:10:16;6.90;99.90
44775;DHT22;31340;51.402;0.016;2024-03-02T03:12:44;6.90;99.90
44775;DHT22;31340;51.402;0.016;2024-03-02T03:15:13;6.90;99.90
44775;DHT22;31340;51.402;0.016;2024-03-02T03:17:42;6.90;99.90
44775;DHT22;31340;51.402;0.016;2024-03-02T03:20:10;6.90;99.90
44775;DHT22;31340;51.402;0.016;2024-03-02T03:22:38;6.90;99.90
44775;DHT22;31340;51.402;0.016;2024-03-02T03:25:07;7.00;99.90
44775;DHT22;31340;51.402;0.016;2024-03-02T03:27:38;7.00;99.90
44775;DHT22;31340;51.402;0.016;2024-03-02T03:30:06;7.00;99.90
44775;DHT22;31340;51.402;0.016;2024-03-02T03:32:34;7.00;99.90
44775;DHT22;31340;51.402;0.016;2024-03-02T03:35:03;7.00;99.90
44775;DHT22;31340;51.402;0.016;2024-03-02T03:37:32;7.00;99.90
44775;DHT22;31340;51.402;0.016;2024-03-02T03:40:05;7.00;99.90
44775;DHT22;31340;51.402;0.016;2024-03-02T03:42:39;7.10;99.90
44775;DHT22;31340;51.402;0.016;2024-03-02T03:45:07;7.10;99.90
44775;DHT22;31340;51.402;0.016;2024-03-02T03:47:35;7.10;99.90
44775;DHT22;31340;51.402;0.016;2024-03-02T03:50:03;7.10;99.90
44775;DHT22;31340;51.402;0.016;2024-03-02T03:52:35;7.10;99.90
44775;DHT22;31340;51.402;0.016;2024-03-02T03:55:03;7.10;99.90
44775;DHT22;31340;51.402;0.016;2024-03-02T03:57:33;7.10;99.90
44775;DHT22;31340;51.402;0.016;2024-03-02T04:00:01;7.10;99.90
44775;DHT22;31340;51.402;0.016;2024-03-02T04:02:38;7.20;99.90
44775;DHT22;31340;51.402;0.016;2024-03-02T04:05:06;7.20;99.90
44775;DHT22;31340;51.402;0.016;2024-03-02T04:07:39;7.20;99.90
44775;DHT22;31340;51.402;0.016;2024-03-02T04:10:10;7.20;99.90
44775;DHT22;31340;51.402;0.016;2024-03-02T04:12:39;7.20;99.90
44775;DHT22;31340;51.402;0.016;2024-03-02T04:15:07;7.20;99.90
44775;DHT22;31340;51.402;0.016;2024-03-02T04:17:35;7.20;99.90
44775;DHT22;31340;51.402;0.016;2024-03-02T04:20:03;7.30;99.90
44775;DHT22;31340;51.402;0.016;2024-03-02T04:22:35;7.20;99.90
44775;DHT22;31340;51.402;0.016;2024-03-02T04:25:04;7.30;99.90
44775;DHT22;31340;51.402;0.016;2024-03-02T04:27:35;7.20;99.90
44775;DHT22;31340;51.402;0.016;2024-03-02T04:30:04;7.20;99.90
44775;DHT22;31340;51.402;0.016;2024-03-02T04:32:33;7.20;99.90
44775;DHT22;31340;51.402;0.016;2024-03-02T04:35:00;7.20;99.90
44775;DHT22;31340;51.402;0.016;2024-03-02T04:37:28;7.20;99.90
44775;DHT22;31340;51.402;0.016;2024-03-02T04:39:56;7.20;99.90
44775;DHT22;31340;51.402;0.016;2024-03-02T04:42:23;7.20;99.90
44775;DHT22;31340;51.402;0.016;2024-03-02T04:44:52;7.20;99.90
44775;DHT22;31340;51.402;0.016;2024-03-02T04:47:19;7.30;99.90
44775;DHT22;31340;51.402;0.016;2024-03-02T04:49:47;7.20;99.90
44775;DHT22;31340;51.402;0.016;2024-03-02T04:52:15;7.30;99.90
44775;DHT22;31340;51.402;0.016;2024-03-02T04:54:43;7.20;99.90
44775;DHT22;31340;51.402;0.016;2024-03-02T04:57:44;7.20;99.90
44775;DHT22;31340;51.402;0.016;2024-03-02T05:00:14;7.20;99.90
44775;DHT22;31340;51.402;0.016;2024-03-02T05:02:42;7.20;99.90
44775;DHT22;31340;51.402;0.016;2024-03-02T05:05:09;7.20;99.90
44775;DHT22;31340;51.402;0.016;2024-03-02T05:07:37;7.20;99.90
44775;DHT22;31340;51.402;0.016;2024-03-02T05:10:05;7.30;99.90
44775;DHT22;31340;51.402;0.016;2024-03-02T05:12:33;7.30;99.90
44775;DHT22;31340;51.402;0.016;2024-03-02T05:15:04;7.30;99.90
44775;DHT22;31340;51.402;0.016;2024-03-02T05:17:31;7.30;99.90
44775;DHT22;31340;51.402;0.016;2024-03-02T05:19:59;7.30;99.90
44775;DHT22;31340;51.402;0.016;2024-03-02T05:22:26;7.30;99.90
44775;DHT22;31340;51.402;0.016;2024-03-02T05:24:54;7.30;99.90
44775;DHT22;31340;51.402;0.016;2024-03-02T05:27:22;7.30;99.90
44775;DHT22;31340;51.402;0.016;2024-03-02T05:29:49;7.30;99.90
44775;DHT22;31340;51.402;0.016;2024-03-02T05:32:17;7.20;99.90
44775;DHT22;31340;51.402;0.016;2024-03-02T05:34:45;7.30;99.90
44775;DHT22;31340;51.402;0.016;2024-03-02T05:37:13;7.30;99.90
44775;DHT22;31340;51.402;0.016;2024-03-02T05:39:40;7.30;99.90
44775;DHT22;31340;51.402;0.016;2024-03-02T05:42:08;7.30;99.90
44775;DHT22;31340;51.402;0.016;2024-03-02T05:44:36;7.30;99.90
44775;DHT22;31340;51.402;0.016;2024-03-02T05:47:04;7.30;99.90
44775;DHT22;31340;51.402;0.016;2024-03-02T05:49:36;7.30;99.90
44775;DHT22;31340;51.402;0.016;2024-03-02T05:52:04;7.30;99.90
44775;DHT22;31340;51.402;0.016;2024-03-02T05:54:32;7.30;99.90
44775;DHT22;31340;51.402;0.016;2024-03-02T05:56:59;7.30;99.90
44775;DHT22;31340;51.402;0.016;2024-03-02T05:59:44;7.30;99.90
44775;DHT22;31340;51.402;0.016;2024-03-02T06:02:12;7.30;99.90
44775;DHT22;31340;51.402;0.016;2024-03-02T06:04:40;7.30;99.90
44775;DHT22;31340;51.402;0.016;2024-03-02T06:07:07;7.30;99.90
44775;DHT22;31340;51.402;0.016;2024-03-02T06:09:35;7.30;99.90
44775;DHT22;31340;51.402;0.016;2024-03-02T06:12:03;7.40;99.90
44775;DHT22;31340;51.402;0.016;2024-03-02T06:14:31;7.40;99.90
44775;DHT22;31340;51.402;0.016;2024-03-02T06:16:59;7.40;99.90
44775;DHT22;31340;51.402;0.016;2024-03-02T06:19:27;7.40;99.90
44775;DHT22;31340;51.402;0.016;2024-03-02T06:21:55;7.40;99.90
44775;DHT22;31340;51.402;0.016;2024-03-02T06:24:23;7.40;99.90
44775;DHT22;31340;51.402;0.016;2024-03-02T06:26:51;7.40;99.90
44775;DHT22;31340;51.402;0.016;2024-03-02T06:29:19;7.50;99.90
44775;DHT22;31340;51.402;0.016;2024-03-02T06:31:46;7.50;99.90
44775;DHT22;31340;51.402;0.016;2024-03-02T06:34:17;7.50;99.90
44775;DHT22;31340;51.402;0.016;2024-03-02T06:36:44;7.50;99.90
44775;DHT22;31340;51.402;0.016;2024-03-02T06:39:12;7.50;99.90
44775;DHT22;31340;51.402;0.016;2024-03-02T06:41:39;7.50;99.90
44775;DHT22;31340;51.402;0.016;2024-03-02T06:44:07;7.50;99.90
44775;DHT22;31340;51.402;0.016;2024-03-02T06:46:34;7.50;99.90
44775;DHT22;31340;51.402;0.016;2024-03-02T06:49:02;7.50;99.90
44775;DHT22;31340;51.402;0.016;2024-03-02T06:51:33;7.50;99.90
44775;DHT22;31340;51.402;0.016;2024-03-02T06:54:01;7.50;99.90
44775;DHT22;31340;51.402;0.016;2024-03-02T06:56:28;7.50;99.90
44775;DHT22;31340;51.402;0.016;2024-03-02T06:58:56;7.50;99.90
44775;DHT22;31340;51.402;0.016;2024-03-02T07:01:24;7.50;99.90
44775;DHT22;31340;51.402;0.016;2024-03-02T07:03:54;7.50;99.90
44775;DHT22;31340;51.402;0.016;2024-03-02T07:06:22;7.50;99.90
44775;DHT22;31340;51.402;0.016;2024-03-02T07:08:50;7.50;99.90
44775;DHT22;31340;51.402;0.016;2024-03-02T07:11:18;7.50;99.90
44775;DHT22;31340;51.402;0.016;2024-03-02T07:13:45;7.50;99.90
44775;DHT22;31340;51.402;0.016;2024-03-02T07:16:13;7.50;99.90
44775;DHT22;31340;51.402;0.016;2024-03-02T07:18:57;7.40;99.90
44775;DHT22;31340;51.402;0.016;2024-03-02T07:21:27;7.40;99.90
44775;DHT22;31340;51.402;0.016;2024-03-02T07:23:54;7.40;99.90
44775;DHT22;31340;51.402;0.016;2024-03-02T07:26:22;7.40;99.90
44775;DHT22;31340;51.402;0.016;2024-03-02T07:28:53;7.40;99.90
44775;DHT22;31340;51.402;0.016;2024-03-02T07:31:21;7.40;99.90
44775;DHT22;31340;51.402;0.016;2024-03-02T07:33:48;7.40;99.90
44775;DHT22;31340;51.402;0.016;2024-03-02T07:36:17;7.40;99.90
44775;DHT22;31340;51.402;0.016;2024-03-02T07:38:45;7.40;99.90
44775;DHT22;31340;51.402;0.016;2024-03-02T07:41:12;7.40;99.90
44775;DHT22;31340;51.402;0.016;2024-03-02T07:43:40;7.40;99.90
44775;DHT22;31340;51.402;0.016;2024-03-02T07:46:08;7.40;99.90
44775;DHT22;31340;51.402;0.016;2024-03-02T07:48:36;7.40;99.90
44775;DHT22;31340;51.402;0.016;2024-03-02T07:51:05;7.40;99.90
44775;DHT22;31340;51.402;0.016;2024-03-02T07:53:32;7.40;99.90
44775;DHT22;31340;51.402;0.016;2024-03-02T07:56:00;7.40;99.90
44775;DHT22;31340;51.402;0.016;2024-03-02T07:58:30;7.50;99.90
44775;DHT22;31340;51.402;0.016;2024-03-02T08:00:58;7.50;99.90
44775;DHT22;31340;51.402;0.016;2024-03-02T08:03:29;7.50;99.90
44775;DHT22;31340;51.402;0.016;2024-03-02T08:05:57;7.50;99.90
44775;DHT22;31340;51.402;0.016;2024-03-02T08:08:26;7.50;99.90
44775;DHT22;31340;51.402;0.016;2024-03-02T08:10:53;7.60;99.90
44775;DHT22;31340;51.402;0.016;2024-03-02T08:13:21;7.60;99.90
44775;DHT22;31340;51.402;0.016;2024-03-02T08:15:49;7.60;99.90
44775;DHT22;31340;51.402;0.016;2024-03-02T08:18:18;7.60;99.90
44775;DHT22;31340;51.402;0.016;2024-03-02T08:20:46;7.60;99.90
44775;DHT22;31340;51.402;0.016;2024-03-02T08:23:14;7.60;99.90
44775;DHT22;31340;51.402;0.016;2024-03-02T08:25:42;7.70;99.90
44775;DHT22;31340;51.402;0.016;2024-03-02T08:28:10;7.60;99.90
44775;DHT22;31340;51.402;0.016;2024-03-02T08:30:38;7.70;99.90
44775;DHT22;31340;51.402;0.016;2024-03-02T08:33:05;7.70;99.90
44775;DHT22;31340;51.402;0.016;2024-03-02T08:35:34;7.70;99.90
44775;DHT22;31340;51.402;0.016;2024-03-02T08:38:04;7.70;99.90
44775;DHT22;31340;51.402;0.016;2024-03-02T08:40:32;7.70;99.90
44775;DHT22;31340;51.402;0.016;2024-03-02T08:43:00;7.70;99.90
44775;DHT22;31340;51.402;0.016;2024-03-02T08:45:28;7.70;99.90
44775;DHT22;31340;51.402;0.016;2024-03-02T08:47:55;7.80;99.90
44775;DHT22;31340;51.402;0.016;2024-03-02T08:50:24;7.80;99.90
44775;DHT22;31340;51.402;0.016;2024-03-02T08:52:52;7.80;99.90
44775;DHT22;31340;51.402;0.016;2024-03-02T08:55:20;7.80;99.90
44775;DHT22;31340;51.402;0.016;2024-03-02T08:57:47;7.80;99.90
44775;DHT22;31340;51.402;0.016;2024-03-02T09:00:18;7.90;99.90
44775;DHT22;31340;51.402;0.016;2024-03-02T09:02:46;7.80;99.90
44775;DHT22;31340;51.402;0.016;2024-03-02T09:05:15;7.90;99.90
44775;DHT22;31340;51.402;0.016;2024-03-02T09:07:42;7.90;99.90
44775;DHT22;31340;51.402;0.016;2024-03-02T09:10:10;7.90;99.90
44775;DHT22;31340;51.402;0.016;2024-03-02T09:12:38;8.00;99.90
44775;DHT22;31340;51.402;0.016;2024-03-02T09:15:07;8.00;99.90
44775;DHT22;31340;51.402;0.016;2024-03-02T09:17:35;8.00;99.90
44775;DHT22;31340;51.402;0.016;2024-03-02T09:20:04;8.00;99.90
44775;DHT22;31340;51.402;0.016;2024-03-02T09:22:31;8.00;99.90
44775;DHT22;31340;51.402;0.016;2024-03-02T09:24:59;8.10;99.90
44775;DHT22;31340;51.402;0.016;2024-03-02T09:27:27;8.10;99.90
44775;DHT22;31340;51.402;0.016;2024-03-02T09:29:55;8.10;99.90
44775;DHT22;31340;51.402;0.016;2024-03-02T09:32:22;8.10;99.90
44775;DHT22;31340;51.402;0.016;2024-03-02T09:34:51;8.10;99.90
44775;DHT22;31340;51.402;0.016;2024-03-02T09:37:20;8.10;99.90
44775;DHT22;31340;51.402;0.016;2024-03-02T09:39:48;8.10;99.90
44775;DHT22;31340;51.402;0.016;2024-03-02T09:42:16;8.10;99.90
44775;DHT22;31340;51.402;0.016;2024-03-02T09:44:44;8.20;99.90
44775;DHT22;31340;51.402;0.016;2024-03-02T09:47:12;8.20;99.90
44775;DHT22;31340;51.402;0.016;2024-03-02T09:49:40;8.20;99.90
44775;DHT22;31340;51.402;0.016;2024-03-02T09:52:08;8.30;99.90
44775;DHT22;31340;51.402;0.016;2024-03-02T09:54:36;8.30;99.90
44775;DHT22;31340;51.402;0.016;2024-03-02T09:57:04;8.30;99.90
44775;DHT22;31340;51.402;0.016;2024-03-02T09:59:32;8.30;99.90
44775;DHT22;31340;51.402;0.016;2024-03-02T10:02:02;8.30;99.90
44775;DHT22;31340;51.402;0.016;2024-03-02T10:04:30;8.30;99.90
44775;DHT22;31340;51.402;0.016;2024-03-02T10:07:12;8.20;99.90
44775;DHT22;31340;51.402;0.016;2024-03-02T10:09:49;8.20;99.90
44775;DHT22;31340;51.402;0.016;2024-03-02T10:12:19;8.20;99.90
44775;DHT22;31340;51.402;0.016;2024-03-02T10:14:47;8.10;99.90
44775;DHT22;31340;51.402;0.016;2024-03-02T10:17:17;8.10;99.90
44775;DHT22;31340;51.402;0.016;2024-03-02T10:19:45;8.00;99.90
44775;DHT22;31340;51.402;0.016;2024-03-02T10:22:13;8.00;99.90
44775;DHT22;31340;51.402;0.016;2024-03-02T10:24:43;7.90;99.90
44775;DHT22;31340;51.402;0.016;2024-03-02T10:27:17;7.90;99.90
44775;DHT22;31340;51.402;0.016;2024-03-02T10:29:46;7.90;99.90
44775;DHT22;31340;51.402;0.016;2024-03-02T10:32:15;7.90;99.90
44775;DHT22;31340;51.402;0.016;2024-03-02T10:34:46;7.90;99.90
44775;DHT22;31340;51.402;0.016;2024-03-02T10:37:15;7.90;99.90
44775;DHT22;31340;51.402;0.016;2024-03-02T10:39:43;7.90;99.90
44775;DHT22;31340;51.402;0.016;2024-03-02T10:42:14;7.90;99.90
44775;DHT22;31340;51.402;0.016;2024-03-02T10:44:42;8.00;99.90
44775;DHT22;31340;51.402;0.016;2024-03-02T10:47:12;8.10;99.90
44775;DHT22;31340;51.402;0.016;2024-03-02T10:49:42;8.20;99.90
44775;DHT22;31340;51.402;0.016;2024-03-02T10:52:11;8.30;99.90
44775;DHT22;31340;51.402;0.016;2024-03-02T10:54:38;8.30;99.90
44775;DHT22;31340;51.402;0.016;2024-03-02T10:57:08;8.50;99.90
44775;DHT22;31340;51.402;0.016;2024-03-02T10:59:48;8.50;99.90
44775;DHT22;31340;51.402;0.016;2024-03-02T11:02:21;8.60;99.90
44775;DHT22;31340;51.402;0.016;2024-03-02T11:04:50;8.60;99.90
44775;DHT22;31340;51.402;0.016;2024-03-02T11:07:23;8.60;99.90
44775;DHT22;31340;51.402;0.016;2024-03-02T11:09:58;8.60;99.90
44775;DHT22;31340;51.402;0.016;2024-03-02T11:12:34;8.60;99.90
44775;DHT22;31340;51.402;0.016;2024-03-02T11:15:04;8.60;99.90
44775;DHT22;31340;51.402;0.016;2024-03-02T11:17:39;8.60;99.90
44775;DHT22;31340;51.402;0.016;2024-03-02T11:20:08;8.60;99.90
44775;DHT22;31340;51.402;0.016;2024-03-02T11:22:36;8.60;99.90
44775;DHT22;31340;51.402;0.016;2024-03-02T11:25:05;8.60;99.90
44775;DHT22;31340;51.402;0.016;2024-03-02T11:33:04;8.60;99.90
44775;DHT22;31340;51.402;0.016;2024-03-02T11:35:36;8.50;99.90
44775;DHT22;31340;51.402;0.016;2024-03-02T11:38:07;8.50;99.90
44775;DHT22;31340;51.402;0.016;2024-03-02T11:40:36;8.50;99.90
44775;DHT22;31340;51.402;0.016;2024-03-02T11:43:07;8.50;99.90
44775;DHT22;31340;51.402;0.016;2024-03-02T11:45:35;8.40;99.90
44775;DHT22;31340;51.402;0.016;2024-03-02T11:48:08;8.40;99.90
44775;DHT22;31340;51.402;0.016;2024-03-02T11:50:42;8.50;99.90
44775;DHT22;31340;51.402;0.016;2024-03-02T11:53:15;8.50;99.90
44775;DHT22;31340;51.402;0.016;2024-03-02T11:55:43;8.60;99.90
44775;DHT22;31340;51.402;0.016;2024-03-02T11:58:15;8.70;99.90
44775;DHT22;31340;51.402;0.016;2024-03-02T12:00:55;8.80;99.90
44775;DHT22;31340;51.402;0.016;2024-03-02T12:03:25;8.90;99.90
44775;DHT22;31340;51.402;0.016;2024-03-02T12:05:54;9.00;99.90
44775;DHT22;31340;51.402;0.016;2024-03-02T12:08:22;9.10;99.90
44775;DHT22;31340;51.402;0.016;2024-03-02T12:11:01;9.20;99.90
44775;DHT22;31340;51.402;0.016;2024-03-02T12:13:31;9.40;99.90
44775;DHT22;31340;51.402;0.016;2024-03-02T12:15:59;9.60;99.90
44775;DHT22;31340;51.402;0.016;2024-03-02T12:18:27;9.70;99.90
44775;DHT22;31340;51.402;0.016;2024-03-02T12:20:55;9.80;99.90
44775;DHT22;31340;51.402;0.016;2024-03-02T12:23:26;9.90;99.90
44775;DHT22;31340;51.402;0.016;2024-03-02T12:25:54;10.00;99.90
44775;DHT22;31340;51.402;0.016;2024-03-02T12:28:23;10.10;99.90
44775;DHT22;31340;51.402;0.016;2024-03-02T12:30:50;10.20;99.90
44775;DHT22;31340;51.402;0.016;2024-03-02T12:33:19;10.30;99.90
44775;DHT22;31340;51.402;0.016;2024-03-02T12:35:49;10.30;99.90
44775;DHT22;31340;51.402;0.016;2024-03-02T12:38:17;10.40;99.90
44775;DHT22;31340;51.402;0.016;2024-03-02T12:40:48;10.50;99.90
44775;DHT22;31340;51.402;0.016;2024-03-02T12:43:15;10.60;99.90
44775;DHT22;31340;51.402;0.016;2024-03-02T12:45:43;10.70;99.90
44775;DHT22;31340;51.402;0.016;2024-03-02T12:48:11;10.90;99.90
44775;DHT22;31340;51.402;0.016;2024-03-02T12:50:41;11.10;99.90
44775;DHT22;31340;51.402;0.016;2024-03-02T12:53:14;11.30;99.90
44775;DHT22;31340;51.402;0.016;2024-03-02T12:55:43;11.50;99.90
44775;DHT22;31340;51.402;0.016;2024-03-02T12:58:19;11.70;99.90
44775;DHT22;31340;51.402;0.016;2024-03-02T13:00:48;11.90;99.90
44775;DHT22;31340;51.402;0.016;2024-03-02T13:03:18;12.00;99.90
44775;DHT22;31340;51.402;0.016;2024-03-02T13:05:50;12.10;99.90
44775;DHT22;31340;51.402;0.016;2024-03-02T13:08:19;12.20;99.90
44775;DHT22;31340;51.402;0.016;2024-03-02T13:10:46;12.30;99.90
44775;DHT22;31340;51.402;0.016;2024-03-02T13:13:14;12.30;99.90
44775;DHT22;31340;51.402;0.016;2024-03-02T13:15:42;12.30;99.90
44775;DHT22;31340;51.402;0.016;2024-03-02T13:18:11;12.30;99.90
44775;DHT22;31340;51.402;0.016;2024-03-02T13:20:48;12.40;99.90
44775;DHT22;31340;51.402;0.016;2024-03-02T13:23:16;12.40;99.90
44775;DHT22;31340;51.402;0.016;2024-03-02T13:25:44;12.40;99.90
44775;DHT22;31340;51.402;0.016;2024-03-02T13:28:14;12.40;99.90
44775;DHT22;31340;51.402;0.016;2024-03-02T13:30:42;12.40;99.90
44775;DHT22;31340;51.402;0.016;2024-03-02T13:33:10;12.40;99.90
44775;DHT22;31340;51.402;0.016;2024-03-02T13:35:38;12.50;99.90
44775;DHT22;31340;51.402;0.016;2024-03-02T13:38:05;12.60;99.90
44775;DHT22;31340;51.402;0.016;2024-03-02T13:40:33;12.70;99.90
44775;DHT22;31340;51.402;0.016;2024-03-02T13:43:03;12.90;99.90
44775;DHT22;31340;51.402;0.016;2024-03-02T13:45:31;13.10;99.90
44775;DHT22;31340;51.402;0.016;2024-03-02T13:48:00;13.20;99.90
44775;DHT22;31340;51.402;0.016;2024-03-02T13:50:28;13.30;99.90
44775;DHT22;31340;51.402;0.016;2024-03-02T13:52:57;13.60;99.90
44775;DHT22;31340;51.402;0.016;2024-03-02T13:55:25;13.70;99.90
44775;DHT22;31340;51.402;0.016;2024-03-02T13:57:53;13.90;99.90
44775;DHT22;31340;51.402;0.016;2024-03-02T14:00:20;14.20;99.90
44775;DHT22;31340;51.402;0.016;2024-03-02T14:02:48;14.30;99.30
44775;DHT22;31340;51.402;0.016;2024-03-02T14:05:17;14.40;99.00
44775;DHT22;31340;51.402;0.016;2024-03-02T14:07:46;14.40;98.20
44775;DHT22;31340;51.402;0.016;2024-03-02T14:10:14;14.30;97.90
44775;DHT22;31340;51.402;0.016;2024-03-02T14:12:43;14.30;97.90
44775;DHT22;31340;51.402;0.016;2024-03-02T14:15:11;14.40;98.00
44775;DHT22;31340;51.402;0.016;2024-03-02T14:17:39;14.50;97.40
44775;DHT22;31340;51.402;0.016;2024-03-02T14:20:08;14.60;97.00
44775;DHT22;31340;51.402;0.016;2024-03-02T14:22:39;14.70;96.30
44775;DHT22;31340;51.402;0.016;2024-03-02T14:25:07;14.60;96.20
44775;DHT22;31340;51.402;0.016;2024-03-02T14:27:35;14.70;96.00
44775;DHT22;31340;51.402;0.016;2024-03-02T14:30:24;14.80;95.80
44775;DHT22;31340;51.402;0.016;2024-03-02T14:32:51;14.80;95.60
44775;DHT22;31340;51.402;0.016;2024-03-02T14:35:19;14.80;94.70
44775;DHT22;31340;51.402;0.016;2024-03-02T14:37:49;14.70;94.00
44775;DHT22;31340;51.402;0.016;2024-03-02T14:40:17;14.70;93.90
44775;DHT22;31340;51.402;0.016;2024-03-02T14:42:45;14.80;93.90
44775;DHT22;31340;51.402;0.016;2024-03-02T14:45:15;15.00;93.40
44775;DHT22;31340;51.402;0.016;2024-03-02T14:47:43;15.00;92.30
44775;DHT22;31340;51.402;0.016;2024-03-02T14:50:11;15.00;92.30
44775;DHT22;31340;51.402;0.016;2024-03-02T14:52:39;15.10;91.80
44775;DHT22;31340;51.402;0.016;2024-03-02T14:55:09;15.10;91.40
44775;DHT22;31340;51.402;0.016;2024-03-02T14:57:37;15.20;91.10
44775;DHT22;31340;51.402;0.016;2024-03-02T15:00:06;15.20;90.80
44775;DHT22;31340;51.402;0.016;2024-03-02T15:02:35;15.30;90.70
44775;DHT22;31340;51.402;0.016;2024-03-02T15:05:03;15.50;90.70
44775;DHT22;31340;51.402;0.016;2024-03-02T15:07:31;15.60;90.50
44775;DHT22;31340;51.402;0.016;2024-03-02T15:09:59;15.70;90.20
44775;DHT22;31340;51.402;0.016;2024-03-02T15:12:26;15.60;89.30
44775;DHT22;31340;51.402;0.016;2024-03-02T15:14:54;15.60;88.80
44775;DHT22;31340;51.402;0.016;2024-03-02T15:17:22;15.60;88.80
44775;DHT22;31340;51.402;0.016;2024-03-02T15:19:50;15.60;88.70
44775;DHT22;31340;51.402;0.016;2024-03-02T15:22:17;15.60;88.20
44775;DHT22;31340;51.402;0.016;2024-03-02T15:24:45;15.70;87.90
44775;DHT22;31340;51.402;0.016;2024-03-02T15:27:13;15.70;86.80
44775;DHT22;31340;51.402;0.016;2024-03-02T15:29:41;15.60;86.90
44775;DHT22;31340;51.402;0.016;2024-03-02T15:32:08;15.50;87.30
44775;DHT22;31340;51.402;0.016;2024-03-02T15:34:36;15.40;86.70
44775;DHT22;31340;51.402;0.016;2024-03-02T15:37:04;15.30;88.50
44775;DHT22;31340;51.402;0.016;2024-03-02T15:39:32;15.30;88.10
44775;DHT22;31340;51.402;0.016;2024-03-02T15:42:00;15.20;86.90
44775;DHT22;31340;51.402;0.016;2024-03-02T15:44:28;15.00;87.10
44775;DHT22;31340;51.402;0.016;2024-03-02T15:46:56;15.00;87.60
44775;DHT22;31340;51.402;0.016;2024-03-02T15:49:24;15.10;87.90
44775;DHT22;31340;51.402;0.016;2024-03-02T15:51:52;15.10;87.60
44775;DHT22;31340;51.402;0.016;2024-03-02T15:54:20;15.10;88.00
44775;DHT22;31340;51.402;0.016;2024-03-02T15:56:48;15.00;88.20
44775;DHT22;31340;51.402;0.016;2024-03-02T15:59:15;14.90;88.20